sensor_id;sensor_type;location;lat;lon;timestamp;P1;durP1;ratioP1;P2;durP2;ratioP2
27632;SDS011;15046;50.930;13.334;2023-03-01T00:01:25;31.60;;;16.95;;
27632;SDS011;15046;50.930;13.334;2023-03-01T00:03:53;27.05;;;15.80;;
27632;SDS011;15046;50.930;13.334;2023-03-01T00:06:19;30.85;;;16.20;;
27632;SDS011;15046;50.930;13.334;2023-03-01T00:08:45;32.25;;;15.43;;
27632;SDS011;15046;50.930;13.334;2023-03-01T00:11:13;30.23;;;16.55;;
27632;SDS011;15046;50.930;13.334;2023-03-01T00:13:42;32.70;;;17.17;;
27632;SDS011;15046;50.930;13.334;2023-03-01T00:16:13;30.95;;;15.65;;
27632;SDS011;15046;50.930;13.334;2023-03-01T00:19:00;29.33;;;15.35;;
27632;SDS011;15046;50.930;13.334;2023-03-01T00:21:27;29.45;;;15.50;;
27632;SDS011;15046;50.930;13.334;2023-03-01T00:23:53;28.88;;;14.82;;
27632;SDS011;15046;50.930;13.334;2023-03-01T00:26:20;31.13;;;16.67;;
27632;SDS011;15046;50.930;13.334;2023-03-01T00:28:48;33.65;;;15.55;;
27632;SDS011;15046;50.930;13.334;2023-03-01T00:31:15;28.55;;;15.50;;
27632;SDS011;15046;50.930;13.334;2023-03-01T00:33:45;32.53;;;16.63;;
27632;SDS011;15046;50.930;13.334;2023-03-01T00:36:12;33.45;;;16.60;;
27632;SDS011;15046;50.930;13.334;2023-03-01T00:38:40;34.40;;;17.00;;
27632;SDS011;15046;50.930;13.334;2023-03-01T00:41:08;30.35;;;15.02;;
27632;SDS011;15046;50.930;13.334;2023-03-01T00:43:39;29.92;;;16.35;;
27632;SDS011;15046;50.930;13.334;2023-03-01T00:46:16;31.27;;;16.45;;
27632;SDS011;15046;50.930;13.334;2023-03-01T00:48:43;27.65;;;15.13;;
27632;SDS011;15046;50.930;13.334;2023-03-01T00:51:11;26.75;;;15.20;;
27632;SDS011;15046;50.930;13.334;2023-03-01T00:53:52;29.38;;;15.52;;
27632;SDS011;15046;50.930;13.334;2023-03-01T00:56:20;32.15;;;15.85;;
27632;SDS011;15046;50.930;13.334;2023-03-01T00:58:46;32.70;;;17.23;;
27632;SDS011;15046;50.930;13.334;2023-03-01T01:01:16;33.03;;;17.65;;
27632;SDS011;15046;50.930;13.334;2023-03-01T01:06:15;27.65;;;16.05;;
27632;SDS011;15046;50.930;13.334;2023-03-01T01:08:49;35.50;;;16.58;;
27632;SDS011;15046;50.930;13.334;2023-03-01T01:11:16;32.13;;;16.35;;
27632;SDS011;15046;50.930;13.334;2023-03-01T01:13:43;31.08;;;15.95;;
27632;SDS011;15046;50.930;13.334;2023-03-01T01:16:11;31.02;;;16.75;;
27632;SDS011;15046;50.930;13.334;2023-03-01T01:18:37;30.95;;;17.20;;
27632;SDS011;15046;50.930;13.334;2023-03-01T01:21:10;33.30;;;15.95;;
27632;SDS011;15046;50.930;13.334;2023-03-01T01:23:38;29.65;;;15.80;;
27632;SDS011;15046;50.930;13.334;2023-03-01T01:26:06;33.20;;;15.32;;
27632;SDS011;15046;50.930;13.334;2023-03-01T01:28:33;33.30;;;15.98;;
27632;SDS011;15046;50.930;13.334;2023-03-01T01:30:59;33.42;;;15.43;;
27632;SDS011;15046;50.930;13.334;2023-03-01T01:33:25;28.92;;;15.32;;
27632;SDS011;15046;50.930;13.334;2023-03-01T01:35:51;30.45;;;15.27;;
27632;SDS011;15046;50.930;13.334;2023-03-01T01:38:18;33.55;;;16.85;;
27632;SDS011;15046;50.930;13.334;2023-03-01T01:40:44;32.13;;;16.38;;
27632;SDS011;15046;50.930;13.334;2023-03-01T01:43:24;31.63;;;16.55;;
27632;SDS011;15046;50.930;13.334;2023-03-01T01:45:54;32.08;;;17.08;;
27632;SDS011;15046;50.930;13.334;2023-03-01T01:48:31;29.25;;;15.23;;
27632;SDS011;15046;50.930;13.334;2023-03-01T01:51:14;34.42;;;17.05;;
27632;SDS011;15046;50.930;13.334;2023-03-01T01:53:50;35.25;;;18.40;;
27632;SDS011;15046;50.930;13.334;2023-03-01T01:56:20;34.17;;;16.95;;
27632;SDS011;15046;50.930;13.334;2023-03-01T01:58:49;34.83;;;17.48;;
27632;SDS011;15046;50.930;13.334;2023-03-01T02:01:15;32.10;;;16.35;;
27632;SDS011;15046;50.930;13.334;2023-03-01T02:03:42;30.50;;;16.25;;
27632;SDS011;15046;50.930;13.334;2023-03-01T02:08:54;33.97;;;15.73;;
27632;SDS011;15046;50.930;13.334;2023-03-01T02:11:24;29.58;;;15.02;;
27632;SDS011;15046;50.930;13.334;2023-03-01T02:13:51;28.38;;;15.35;;
27632;SDS011;15046;50.930;13.334;2023-03-01T02:16:19;34.80;;;16.55;;
27632;SDS011;15046;50.930;13.334;2023-03-01T02:18:45;28.65;;;15.27;;
27632;SDS011;15046;50.930;13.334;2023-03-01T02:21:31;26.77;;;15.63;;
27632;SDS011;15046;50.930;13.334;2023-03-01T02:24:10;29.20;;;14.70;;
27632;SDS011;15046;50.930;13.334;2023-03-01T02:26:54;27.80;;;14.65;;
27632;SDS011;15046;50.930;13.334;2023-03-01T02:29:22;28.77;;;15.07;;
27632;SDS011;15046;50.930;13.334;2023-03-01T02:31:49;30.45;;;14.80;;
27632;SDS011;15046;50.930;13.334;2023-03-01T02:34:20;33.10;;;15.27;;
27632;SDS011;15046;50.930;13.334;2023-03-01T02:36:48;27.17;;;15.30;;
27632;SDS011;15046;50.930;13.334;2023-03-01T02:39:37;33.30;;;15.90;;
27632;SDS011;15046;50.930;13.334;2023-03-01T02:42:09;31.85;;;16.08;;
27632;SDS011;15046;50.930;13.334;2023-03-01T02:44:38;34.58;;;17.02;;
27632;SDS011;15046;50.930;13.334;2023-03-01T02:47:04;33.53;;;15.15;;
27632;SDS011;15046;50.930;13.334;2023-03-01T02:49:32;31.92;;;16.08;;
27632;SDS011;15046;50.930;13.334;2023-03-01T02:55:00;28.55;;;15.20;;
27632;SDS011;15046;50.930;13.334;2023-03-01T02:57:30;26.92;;;14.93;;
27632;SDS011;15046;50.930;13.334;2023-03-01T02:59:59;25.33;;;13.85;;
27632;SDS011;15046;50.930;13.334;2023-03-01T03:02:32;27.33;;;14.65;;
27632;SDS011;15046;50.930;13.334;2023-03-01T03:05:05;30.77;;;14.98;;
27632;SDS011;15046;50.930;13.334;2023-03-01T03:07:37;27.25;;;14.25;;
27632;SDS011;15046;50.930;13.334;2023-03-01T03:10:06;24.60;;;13.98;;
27632;SDS011;15046;50.930;13.334;2023-03-01T03:12:33;31.70;;;17.07;;
27632;SDS011;15046;50.930;13.334;2023-03-01T03:14:59;28.08;;;14.30;;
27632;SDS011;15046;50.930;13.334;2023-03-01T03:17:25;30.17;;;15.52;;
27632;SDS011;15046;50.930;13.334;2023-03-01T03:19:51;30.25;;;14.95;;
27632;SDS011;15046;50.930;13.334;2023-03-01T03:22:16;28.80;;;14.50;;
27632;SDS011;15046;50.930;13.334;2023-03-01T03:24:43;29.52;;;15.23;;
27632;SDS011;15046;50.930;13.334;2023-03-01T03:27:08;31.58;;;15.75;;
27632;SDS011;15046;50.930;13.334;2023-03-01T03:29:34;26.83;;;14.90;;
27632;SDS011;15046;50.930;13.334;2023-03-01T03:32:02;29.33;;;14.63;;
27632;SDS011;15046;50.930;13.334;2023-03-01T03:34:28;32.03;;;15.02;;
27632;SDS011;15046;50.930;13.334;2023-03-01T03:36:55;29.42;;;14.70;;
27632;SDS011;15046;50.930;13.334;2023-03-01T03:39:22;30.67;;;16.58;;
27632;SDS011;15046;50.930;13.334;2023-03-01T03:41:48;30.75;;;16.40;;
27632;SDS011;15046;50.930;13.334;2023-03-01T03:44:14;31.58;;;15.55;;
27632;SDS011;15046;50.930;13.334;2023-03-01T03:46:40;28.17;;;13.48;;
27632;SDS011;15046;50.930;13.334;2023-03-01T03:49:05;29.30;;;14.13;;
27632;SDS011;15046;50.930;13.334;2023-03-01T03:51:31;32.55;;;14.80;;
27632;SDS011;15046;50.930;13.334;2023-03-01T03:53:57;27.45;;;13.68;;
27632;SDS011;15046;50.930;13.334;2023-03-01T03:56:23;28.00;;;14.07;;
27632;SDS011;15046;50.930;13.334;2023-03-01T03:58:51;29.73;;;15.13;;
27632;SDS011;15046;50.930;13.334;2023-03-01T04:01:17;28.20;;;14.93;;
27632;SDS011;15046;50.930;13.334;2023-03-01T04:03:43;30.42;;;14.10;;
27632;SDS011;15046;50.930;13.334;2023-03-01T04:06:12;28.23;;;15.23;;
27632;SDS011;15046;50.930;13.334;2023-03-01T04:08:40;32.42;;;14.60;;
27632;SDS011;15046;50.930;13.334;2023-03-01T04:11:06;33.28;;;16.83;;
27632;SDS011;15046;50.930;13.334;2023-03-01T04:13:51;29.73;;;14.52;;
27632;SDS011;15046;50.930;13.334;2023-03-01T04:16:18;30.92;;;15.20;;
27632;SDS011;15046;50.930;13.334;2023-03-01T04:18:44;33.85;;;16.42;;
27632;SDS011;15046;50.930;13.334;2023-03-01T04:21:11;30.15;;;15.80;;
27632;SDS011;15046;50.930;13.334;2023-03-01T04:23:37;31.50;;;16.50;;
27632;SDS011;15046;50.930;13.334;2023-03-01T04:26:04;36.90;;;17.00;;
27632;SDS011;15046;50.930;13.334;2023-03-01T04:28:31;32.78;;;14.98;;
27632;SDS011;15046;50.930;13.334;2023-03-01T04:31:01;29.70;;;16.53;;
27632;SDS011;15046;50.930;13.334;2023-03-01T04:33:37;28.92;;;15.30;;
27632;SDS011;15046;50.930;13.334;2023-03-01T04:36:08;32.10;;;15.32;;
27632;SDS011;15046;50.930;13.334;2023-03-01T04:38:35;29.17;;;14.30;;
27632;SDS011;15046;50.930;13.334;2023-03-01T04:41:03;31.75;;;15.20;;
27632;SDS011;15046;50.930;13.334;2023-03-01T04:43:32;27.27;;;15.57;;
27632;SDS011;15046;50.930;13.334;2023-03-01T04:46:09;27.35;;;14.93;;
27632;SDS011;15046;50.930;13.334;2023-03-01T04:48:37;29.25;;;15.30;;
27632;SDS011;15046;50.930;13.334;2023-03-01T04:51:04;33.30;;;16.77;;
27632;SDS011;15046;50.930;13.334;2023-03-01T04:53:31;30.40;;;14.55;;
27632;SDS011;15046;50.930;13.334;2023-03-01T04:55:58;30.77;;;14.50;;
27632;SDS011;15046;50.930;13.334;2023-03-01T04:58:25;30.17;;;14.88;;
27632;SDS011;15046;50.930;13.334;2023-03-01T05:00:52;28.77;;;14.88;;
27632;SDS011;15046;50.930;13.334;2023-03-01T05:03:18;31.15;;;17.10;;
27632;SDS011;15046;50.930;13.334;2023-03-01T05:05:46;31.45;;;16.95;;
27632;SDS011;15046;50.930;13.334;2023-03-01T05:08:13;29.15;;;15.85;;
27632;SDS011;15046;50.930;13.334;2023-03-01T05:13:11;28.85;;;15.80;;
27632;SDS011;15046;50.930;13.334;2023-03-01T05:15:53;31.42;;;15.90;;
27632;SDS011;15046;50.930;13.334;2023-03-01T05:18:19;32.88;;;16.63;;
27632;SDS011;15046;50.930;13.334;2023-03-01T05:20:45;34.22;;;15.98;;
27632;SDS011;15046;50.930;13.334;2023-03-01T05:23:12;30.13;;;16.33;;
27632;SDS011;15046;50.930;13.334;2023-03-01T05:25:39;34.20;;;17.10;;
27632;SDS011;15046;50.930;13.334;2023-03-01T05:28:10;34.38;;;15.25;;
27632;SDS011;15046;50.930;13.334;2023-03-01T05:30:37;28.50;;;14.07;;
27632;SDS011;15046;50.930;13.334;2023-03-01T05:33:04;32.38;;;15.15;;
27632;SDS011;15046;50.930;13.334;2023-03-01T05:35:32;35.10;;;15.18;;
27632;SDS011;15046;50.930;13.334;2023-03-01T05:38:06;33.72;;;16.27;;
27632;SDS011;15046;50.930;13.334;2023-03-01T05:40:32;29.60;;;14.05;;
27632;SDS011;15046;50.930;13.334;2023-03-01T05:42:59;31.13;;;16.05;;
27632;SDS011;15046;50.930;13.334;2023-03-01T05:45:26;37.45;;;18.73;;
27632;SDS011;15046;50.930;13.334;2023-03-01T05:47:52;43.67;;;21.23;;
27632;SDS011;15046;50.930;13.334;2023-03-01T05:50:23;44.83;;;22.98;;
27632;SDS011;15046;50.930;13.334;2023-03-01T05:52:52;37.22;;;17.95;;
27632;SDS011;15046;50.930;13.334;2023-03-01T05:55:42;37.05;;;17.08;;
27632;SDS011;15046;50.930;13.334;2023-03-01T05:58:10;29.73;;;16.45;;
27632;SDS011;15046;50.930;13.334;2023-03-01T06:00:39;34.05;;;18.27;;
27632;SDS011;15046;50.930;13.334;2023-03-01T06:03:05;35.47;;;18.92;;
27632;SDS011;15046;50.930;13.334;2023-03-01T06:05:31;34.50;;;17.85;;
27632;SDS011;15046;50.930;13.334;2023-03-01T06:08:00;36.75;;;19.67;;
27632;SDS011;15046;50.930;13.334;2023-03-01T06:10:27;43.08;;;22.98;;
27632;SDS011;15046;50.930;13.334;2023-03-01T06:12:53;46.78;;;24.58;;
27632;SDS011;15046;50.930;13.334;2023-03-01T06:15:19;47.60;;;27.63;;
27632;SDS011;15046;50.930;13.334;2023-03-01T06:17:45;46.78;;;25.05;;
27632;SDS011;15046;50.930;13.334;2023-03-01T06:20:16;39.05;;;23.15;;
27632;SDS011;15046;50.930;13.334;2023-03-01T06:22:44;45.75;;;24.48;;
27632;SDS011;15046;50.930;13.334;2023-03-01T06:25:12;37.05;;;20.85;;
27632;SDS011;15046;50.930;13.334;2023-03-01T06:27:39;45.85;;;21.52;;
27632;SDS011;15046;50.930;13.334;2023-03-01T06:30:07;40.15;;;20.67;;
27632;SDS011;15046;50.930;13.334;2023-03-01T06:32:35;40.15;;;20.45;;
27632;SDS011;15046;50.930;13.334;2023-03-01T06:35:02;32.95;;;17.48;;
27632;SDS011;15046;50.930;13.334;2023-03-01T06:37:29;31.60;;;17.30;;
27632;SDS011;15046;50.930;13.334;2023-03-01T06:39:55;33.38;;;17.38;;
27632;SDS011;15046;50.930;13.334;2023-03-01T06:42:21;33.33;;;17.77;;
27632;SDS011;15046;50.930;13.334;2023-03-01T06:44:46;36.63;;;17.70;;
27632;SDS011;15046;50.930;13.334;2023-03-01T06:47:12;28.83;;;16.85;;
27632;SDS011;15046;50.930;13.334;2023-03-01T06:49:38;34.13;;;17.02;;
27632;SDS011;15046;50.930;13.334;2023-03-01T06:52:06;34.97;;;19.38;;
27632;SDS011;15046;50.930;13.334;2023-03-01T06:54:31;41.17;;;20.20;;
27632;SDS011;15046;50.930;13.334;2023-03-01T06:56:57;43.40;;;20.27;;
27632;SDS011;15046;50.930;13.334;2023-03-01T06:59:23;39.13;;;18.52;;
27632;SDS011;15046;50.930;13.334;2023-03-01T07:01:49;33.92;;;17.70;;
27632;SDS011;15046;50.930;13.334;2023-03-01T07:04:14;31.08;;;17.52;;
27632;SDS011;15046;50.930;13.334;2023-03-01T07:06:40;31.83;;;17.73;;
27632;SDS011;15046;50.930;13.334;2023-03-01T07:09:06;38.78;;;20.25;;
27632;SDS011;15046;50.930;13.334;2023-03-01T07:11:32;40.13;;;20.55;;
27632;SDS011;15046;50.930;13.334;2023-03-01T07:13:58;35.63;;;18.05;;
27632;SDS011;15046;50.930;13.334;2023-03-01T07:16:25;36.78;;;20.02;;
27632;SDS011;15046;50.930;13.334;2023-03-01T07:18:51;35.33;;;18.45;;
27632;SDS011;15046;50.930;13.334;2023-03-01T07:21:17;37.05;;;20.20;;
27632;SDS011;15046;50.930;13.334;2023-03-01T07:23:43;37.40;;;20.55;;
27632;SDS011;15046;50.930;13.334;2023-03-01T07:26:08;51.95;;;22.85;;
27632;SDS011;15046;50.930;13.334;2023-03-01T07:28:34;40.95;;;22.52;;
27632;SDS011;15046;50.930;13.334;2023-03-01T07:31:03;47.55;;;24.67;;
27632;SDS011;15046;50.930;13.334;2023-03-01T07:33:29;45.05;;;23.95;;
27632;SDS011;15046;50.930;13.334;2023-03-01T07:35:59;45.33;;;23.60;;
27632;SDS011;15046;50.930;13.334;2023-03-01T07:38:26;45.17;;;22.35;;
27632;SDS011;15046;50.930;13.334;2023-03-01T07:40:57;43.72;;;22.67;;
27632;SDS011;15046;50.930;13.334;2023-03-01T07:43:29;38.30;;;21.92;;
27632;SDS011;15046;50.930;13.334;2023-03-01T07:46:01;46.40;;;22.27;;
27632;SDS011;15046;50.930;13.334;2023-03-01T07:48:28;44.40;;;22.73;;
27632;SDS011;15046;50.930;13.334;2023-03-01T07:50:57;45.50;;;23.23;;
27632;SDS011;15046;50.930;13.334;2023-03-01T07:55:50;42.45;;;19.73;;
27632;SDS011;15046;50.930;13.334;2023-03-01T07:58:29;41.67;;;21.58;;
27632;SDS011;15046;50.930;13.334;2023-03-01T08:00:55;38.88;;;19.23;;
27632;SDS011;15046;50.930;13.334;2023-03-01T08:03:20;40.28;;;20.85;;
27632;SDS011;15046;50.930;13.334;2023-03-01T08:05:46;38.25;;;19.92;;
27632;SDS011;15046;50.930;13.334;2023-03-01T08:08:12;36.47;;;19.65;;
27632;SDS011;15046;50.930;13.334;2023-03-01T08:10:38;35.80;;;19.33;;
27632;SDS011;15046;50.930;13.334;2023-03-01T08:13:03;41.55;;;21.17;;
27632;SDS011;15046;50.930;13.334;2023-03-01T08:15:29;37.00;;;19.02;;
27632;SDS011;15046;50.930;13.334;2023-03-01T08:17:55;32.65;;;18.52;;
27632;SDS011;15046;50.930;13.334;2023-03-01T08:20:21;37.80;;;19.83;;
27632;SDS011;15046;50.930;13.334;2023-03-01T08:22:46;39.90;;;20.00;;
27632;SDS011;15046;50.930;13.334;2023-03-01T08:25:13;44.72;;;20.90;;
27632;SDS011;15046;50.930;13.334;2023-03-01T08:27:39;34.53;;;18.83;;
27632;SDS011;15046;50.930;13.334;2023-03-01T08:30:05;37.97;;;19.95;;
27632;SDS011;15046;50.930;13.334;2023-03-01T08:32:37;40.08;;;19.58;;
27632;SDS011;15046;50.930;13.334;2023-03-01T08:35:03;37.60;;;20.13;;
27632;SDS011;15046;50.930;13.334;2023-03-01T08:37:29;41.03;;;20.08;;
27632;SDS011;15046;50.930;13.334;2023-03-01T08:39:57;34.88;;;18.42;;
27632;SDS011;15046;50.930;13.334;2023-03-01T08:42:25;39.03;;;18.17;;
27632;SDS011;15046;50.930;13.334;2023-03-01T08:44:51;37.90;;;19.13;;
27632;SDS011;15046;50.930;13.334;2023-03-01T08:47:17;35.78;;;17.55;;
27632;SDS011;15046;50.930;13.334;2023-03-01T08:49:42;39.33;;;18.23;;
27632;SDS011;15046;50.930;13.334;2023-03-01T08:52:08;35.20;;;17.38;;
27632;SDS011;15046;50.930;13.334;2023-03-01T08:54:34;37.97;;;19.10;;
27632;SDS011;15046;50.930;13.334;2023-03-01T08:57:02;37.13;;;18.38;;
27632;SDS011;15046;50.930;13.334;2023-03-01T08:59:28;34.08;;;17.30;;
27632;SDS011;15046;50.930;13.334;2023-03-01T09:01:55;34.10;;;17.60;;
27632;SDS011;15046;50.930;13.334;2023-03-01T09:04:21;34.10;;;17.80;;
27632;SDS011;15046;50.930;13.334;2023-03-01T09:06:47;38.25;;;18.50;;
27632;SDS011;15046;50.930;13.334;2023-03-01T09:09:14;34.45;;;18.20;;
27632;SDS011;15046;50.930;13.334;2023-03-01T09:11:41;32.25;;;17.50;;
27632;SDS011;15046;50.930;13.334;2023-03-01T09:14:08;34.95;;;14.98;;
27632;SDS011;15046;50.930;13.334;2023-03-01T09:16:34;29.63;;;15.77;;
27632;SDS011;15046;50.930;13.334;2023-03-01T09:19:01;32.95;;;17.75;;
27632;SDS011;15046;50.930;13.334;2023-03-01T09:21:28;29.20;;;16.05;;
27632;SDS011;15046;50.930;13.334;2023-03-01T09:23:55;31.23;;;16.95;;
27632;SDS011;15046;50.930;13.334;2023-03-01T09:26:22;34.75;;;16.25;;
27632;SDS011;15046;50.930;13.334;2023-03-01T09:28:49;33.63;;;16.10;;
27632;SDS011;15046;50.930;13.334;2023-03-01T09:31:17;34.67;;;17.60;;
27632;SDS011;15046;50.930;13.334;2023-03-01T09:33:49;32.45;;;16.65;;
27632;SDS011;15046;50.930;13.334;2023-03-01T09:36:17;31.40;;;16.80;;
27632;SDS011;15046;50.930;13.334;2023-03-01T09:38:46;32.25;;;18.10;;
27632;SDS011;15046;50.930;13.334;2023-03-01T09:44:05;36.97;;;18.27;;
27632;SDS011;15046;50.930;13.334;2023-03-01T09:46:44;36.10;;;18.23;;
27632;SDS011;15046;50.930;13.334;2023-03-01T09:49:15;39.63;;;17.73;;
27632;SDS011;15046;50.930;13.334;2023-03-01T09:55:05;36.58;;;20.15;;
27632;SDS011;15046;50.930;13.334;2023-03-01T10:00:29;34.78;;;19.10;;
27632;SDS011;15046;50.930;13.334;2023-03-01T10:02:57;36.90;;;19.25;;
27632;SDS011;15046;50.930;13.334;2023-03-01T10:05:38;32.70;;;18.77;;
27632;SDS011;15046;50.930;13.334;2023-03-01T10:11:01;33.90;;;19.10;;
27632;SDS011;15046;50.930;13.334;2023-03-01T10:16:34;37.78;;;20.13;;
27632;SDS011;15046;50.930;13.334;2023-03-01T10:19:03;32.53;;;19.60;;
27632;SDS011;15046;50.930;13.334;2023-03-01T10:21:31;37.25;;;20.40;;
27632;SDS011;15046;50.930;13.334;2023-03-01T10:24:16;34.38;;;19.60;;
27632;SDS011;15046;50.930;13.334;2023-03-01T10:29:27;29.33;;;17.73;;
27632;SDS011;15046;50.930;13.334;2023-03-01T10:31:57;31.50;;;19.05;;
27632;SDS011;15046;50.930;13.334;2023-03-01T10:34:30;34.40;;;20.35;;
27632;SDS011;15046;50.930;13.334;2023-03-01T10:37:08;31.98;;;19.60;;
27632;SDS011;15046;50.930;13.334;2023-03-01T10:39:36;29.27;;;19.70;;
27632;SDS011;15046;50.930;13.334;2023-03-01T10:42:04;31.65;;;19.42;;
27632;SDS011;15046;50.930;13.334;2023-03-01T10:44:38;33.58;;;20.23;;
27632;SDS011;15046;50.930;13.334;2023-03-01T10:47:12;28.98;;;18.23;;
27632;SDS011;15046;50.930;13.334;2023-03-01T10:49:43;32.20;;;19.98;;
27632;SDS011;15046;50.930;13.334;2023-03-01T10:52:25;32.65;;;19.77;;
27632;SDS011;15046;50.930;13.334;2023-03-01T10:54:56;31.30;;;19.73;;
27632;SDS011;15046;50.930;13.334;2023-03-01T10:57:28;30.88;;;19.60;;
27632;SDS011;15046;50.930;13.334;2023-03-01T11:03:34;30.67;;;20.52;;
27632;SDS011;15046;50.930;13.334;2023-03-01T11:05:50;33.60;;;20.65;;
27632;SDS011;15046;50.930;13.334;2023-03-01T11:08:29;34.13;;;19.90;;
27632;SDS011;15046;50.930;13.334;2023-03-01T11:11:20;37.40;;;22.30;;
27632;SDS011;15046;50.930;13.334;2023-03-01T11:13:58;29.63;;;19.65;;
27632;SDS011;15046;50.930;13.334;2023-03-01T11:16:45;33.90;;;21.13;;
27632;SDS011;15046;50.930;13.334;2023-03-01T11:19:17;30.85;;;19.42;;
27632;SDS011;15046;50.930;13.334;2023-03-01T11:21:56;31.58;;;20.92;;
27632;SDS011;15046;50.930;13.334;2023-03-01T11:24:33;31.27;;;19.38;;
27632;SDS011;15046;50.930;13.334;2023-03-01T11:27:32;34.42;;;20.58;;
27632;SDS011;15046;50.930;13.334;2023-03-01T11:30:18;29.67;;;19.88;;
27632;SDS011;15046;50.930;13.334;2023-03-01T11:32:58;34.80;;;22.25;;
27632;SDS011;15046;50.930;13.334;2023-03-01T11:35:29;32.65;;;20.27;;
27632;SDS011;15046;50.930;13.334;2023-03-01T11:43:06;31.73;;;20.15;;
27632;SDS011;15046;50.930;13.334;2023-03-01T11:48:48;29.17;;;19.00;;
27632;SDS011;15046;50.930;13.334;2023-03-01T11:51:25;29.92;;;18.80;;
27632;SDS011;15046;50.930;13.334;2023-03-01T11:54:06;33.92;;;20.08;;
27632;SDS011;15046;50.930;13.334;2023-03-01T11:56:45;29.00;;;18.70;;
27632;SDS011;15046;50.930;13.334;2023-03-01T11:59:45;29.95;;;19.67;;
27632;SDS011;15046;50.930;13.334;2023-03-01T12:10:23;27.40;;;19.23;;
27632;SDS011;15046;50.930;13.334;2023-03-01T12:15:38;32.53;;;19.63;;
27632;SDS011;15046;50.930;13.334;2023-03-01T12:29:07;27.52;;;17.60;;
27632;SDS011;15046;50.930;13.334;2023-03-01T12:34:57;27.35;;;16.88;;
27632;SDS011;15046;50.930;13.334;2023-03-01T12:37:54;24.25;;;16.38;;
27632;SDS011;15046;50.930;13.334;2023-03-01T12:46:25;27.10;;;16.63;;
27632;SDS011;15046;50.930;13.334;2023-03-01T12:51:50;23.85;;;16.17;;
27632;SDS011;15046;50.930;13.334;2023-03-01T12:54:37;24.05;;;16.13;;
27632;SDS011;15046;50.930;13.334;2023-03-01T12:57:09;24.60;;;17.15;;
27632;SDS011;15046;50.930;13.334;2023-03-01T13:08:26;23.02;;;16.13;;
27632;SDS011;15046;50.930;13.334;2023-03-01T13:11:11;24.35;;;16.50;;
27632;SDS011;15046;50.930;13.334;2023-03-01T13:13:44;24.27;;;16.98;;
27632;SDS011;15046;50.930;13.334;2023-03-01T13:21:46;25.23;;;16.77;;
27632;SDS011;15046;50.930;13.334;2023-03-01T13:29:51;27.02;;;17.85;;
27632;SDS011;15046;50.930;13.334;2023-03-01T13:32:25;26.48;;;17.38;;
27632;SDS011;15046;50.930;13.334;2023-03-01T13:35:01;28.17;;;18.13;;
27632;SDS011;15046;50.930;13.334;2023-03-01T13:37:40;24.77;;;17.20;;
27632;SDS011;15046;50.930;13.334;2023-03-01T13:42:44;25.17;;;16.88;;
27632;SDS011;15046;50.930;13.334;2023-03-01T13:45:32;21.15;;;15.13;;
27632;SDS011;15046;50.930;13.334;2023-03-01T13:51:00;21.52;;;14.95;;
27632;SDS011;15046;50.930;13.334;2023-03-01T13:53:33;21.70;;;15.45;;
27632;SDS011;15046;50.930;13.334;2023-03-01T13:56:02;23.20;;;15.18;;
27632;SDS011;15046;50.930;13.334;2023-03-01T13:58:48;21.27;;;14.45;;
27632;SDS011;15046;50.930;13.334;2023-03-01T14:01:26;18.15;;;12.95;;
27632;SDS011;15046;50.930;13.334;2023-03-01T14:03:52;21.20;;;13.07;;
27632;SDS011;15046;50.930;13.334;2023-03-01T14:06:22;20.20;;;13.63;;
27632;SDS011;15046;50.930;13.334;2023-03-01T14:08:51;19.38;;;12.70;;
27632;SDS011;15046;50.930;13.334;2023-03-01T14:17:42;18.13;;;12.48;;
27632;SDS011;15046;50.930;13.334;2023-03-01T14:20:18;20.00;;;12.65;;
27632;SDS011;15046;50.930;13.334;2023-03-01T14:22:50;17.10;;;12.60;;
27632;SDS011;15046;50.930;13.334;2023-03-01T14:25:26;17.20;;;12.35;;
27632;SDS011;15046;50.930;13.334;2023-03-01T14:28:03;18.23;;;12.68;;
27632;SDS011;15046;50.930;13.334;2023-03-01T14:30:31;20.20;;;13.40;;
27632;SDS011;15046;50.930;13.334;2023-03-01T14:33:01;20.48;;;12.98;;
27632;SDS011;15046;50.930;13.334;2023-03-01T14:35:29;18.63;;;12.57;;
27632;SDS011;15046;50.930;13.334;2023-03-01T14:37:57;20.60;;;12.40;;
27632;SDS011;15046;50.930;13.334;2023-03-01T14:40:33;19.55;;;12.38;;
27632;SDS011;15046;50.930;13.334;2023-03-01T14:43:01;19.85;;;12.80;;
27632;SDS011;15046;50.930;13.334;2023-03-01T14:45:34;19.02;;;12.75;;
27632;SDS011;15046;50.930;13.334;2023-03-01T14:48:02;19.63;;;13.57;;
27632;SDS011;15046;50.930;13.334;2023-03-01T14:50:31;23.90;;;13.98;;
27632;SDS011;15046;50.930;13.334;2023-03-01T14:53:07;19.60;;;12.95;;
27632;SDS011;15046;50.930;13.334;2023-03-01T14:55:54;19.42;;;12.75;;
27632;SDS011;15046;50.930;13.334;2023-03-01T14:58:25;19.20;;;12.55;;
27632;SDS011;15046;50.930;13.334;2023-03-01T15:00:52;20.98;;;13.68;;
27632;SDS011;15046;50.930;13.334;2023-03-01T15:06:02;19.63;;;12.52;;
27632;SDS011;15046;50.930;13.334;2023-03-01T15:08:30;21.67;;;13.18;;
27632;SDS011;15046;50.930;13.334;2023-03-01T15:13:38;23.58;;;13.98;;
27632;SDS011;15046;50.930;13.334;2023-03-01T15:16:09;25.05;;;13.63;;
27632;SDS011;15046;50.930;13.334;2023-03-01T15:18:37;24.77;;;13.95;;
27632;SDS011;15046;50.930;13.334;2023-03-01T15:21:14;24.33;;;13.45;;
27632;SDS011;15046;50.930;13.334;2023-03-01T15:23:47;22.08;;;13.32;;
27632;SDS011;15046;50.930;13.334;2023-03-01T15:26:24;29.50;;;13.48;;
27632;SDS011;15046;50.930;13.334;2023-03-01T15:28:54;22.08;;;12.10;;
27632;SDS011;15046;50.930;13.334;2023-03-01T15:31:31;22.47;;;12.10;;
27632;SDS011;15046;50.930;13.334;2023-03-01T15:34:11;21.75;;;13.10;;
27632;SDS011;15046;50.930;13.334;2023-03-01T15:36:47;22.92;;;13.55;;
27632;SDS011;15046;50.930;13.334;2023-03-01T15:39:31;24.40;;;13.52;;
27632;SDS011;15046;50.930;13.334;2023-03-01T15:42:05;25.85;;;14.20;;
27632;SDS011;15046;50.930;13.334;2023-03-01T15:44:36;24.63;;;13.48;;
27632;SDS011;15046;50.930;13.334;2023-03-01T15:47:23;24.25;;;14.68;;
27632;SDS011;15046;50.930;13.334;2023-03-01T15:49:54;23.83;;;13.63;;
27632;SDS011;15046;50.930;13.334;2023-03-01T15:52:26;24.17;;;14.77;;
27632;SDS011;15046;50.930;13.334;2023-03-01T15:54:58;22.75;;;13.02;;
27632;SDS011;15046;50.930;13.334;2023-03-01T15:57:26;26.85;;;13.93;;
27632;SDS011;15046;50.930;13.334;2023-03-01T15:59:52;24.00;;;13.20;;
27632;SDS011;15046;50.930;13.334;2023-03-01T16:02:18;29.55;;;14.68;;
27632;SDS011;15046;50.930;13.334;2023-03-01T16:04:46;21.52;;;12.20;;
27632;SDS011;15046;50.930;13.334;2023-03-01T16:07:13;23.63;;;13.75;;
27632;SDS011;15046;50.930;13.334;2023-03-01T16:09:39;22.50;;;13.55;;
27632;SDS011;15046;50.930;13.334;2023-03-01T16:12:09;23.83;;;13.77;;
27632;SDS011;15046;50.930;13.334;2023-03-01T16:14:39;26.73;;;14.65;;
27632;SDS011;15046;50.930;13.334;2023-03-01T16:17:04;24.90;;;13.27;;
27632;SDS011;15046;50.930;13.334;2023-03-01T16:19:30;24.55;;;13.05;;